KSCK/SCK METAR and TAF weather

Enter ICAO airport designator
Station Type Date Time Source
KSCK METAR 2021/06/24 04:55 UTC NOAA

KSCK 240455Z AUTO 30013KT 10SM CLR 19/12 A2991 RMK AO2 SLP129 T01940117


Station Type Date Time Source
KSCK Decoded METAR 2021/06/24 04:55 UTC NOAA

STOCKTON METROPOLITAN AIRPORT , CA, United States (KSCK) 37-54N 121-14W 10M
Jun 24, 2021 - 12:55 AM EDT / 2021.06.24 0455 UTC
Wind: from the WNW (300 degrees) at 15 MPH (13 KT):0
Visibility: 10 mile(s):0
Sky conditions: clear
Temperature: 66.9 F (19.4 C)
Dew Point: 53.1 F (11.7 C)
Relative Humidity: 61%
Pressure (altimeter): 29.91 in. Hg (1012 hPa)
ob: KSCK 240455Z AUTO 30013KT 10SM CLR 19/12 A2991 RMK AO2 SLP129 T01940117
cycle: 5

Station Type Date Time Source
KSCK TAF 2021/06/24 06:24 UTC NOAA

TAF KSCK 240520Z 2406/2506 30010KT P6SM SKC
FM250000 29012KT P6SM SKC

Example: see airport list